Time;durP1;ratioP1;P1;durP2;ratioP2;P2;SDS_P1;SDS_P2;PMS_P1;PMS_P2;Temp;Humidity;BMP_temperature;BMP_pressure;BME280_temperature;BME280_humidity;BME280_pressure;Samples;Min_cycle;Max_cycle;Signal;HPM_P1;HPM_P2
2023/04/15 00:01:32;;;;;;;13.80;7.90;;;4.30;73.30;;;;;;5069732;28;20135;-77
2023/04/15 00:03:58;;;;;;;16.73;9.37;;;4.30;73.30;;;;;;5069049;28;20045;-76
2023/04/15 00:06:25;;;;;;;17.30;9.10;;;4.30;73.40;;;;;;5040134;28;21166;-76
2023/04/15 00:08:50;;;;;;;18.63;9.07;;;4.30;73.40;;;;;;5065503;28;20055;-77
2023/04/15 00:11:17;;;;;;;17.37;8.57;;;4.20;73.60;;;;;;5069422;28;20032;-77
2023/04/15 00:13:43;;;;;;;18.23;9.57;;;4.20;73.50;;;;;;5067456;28;20079;-76
2023/04/15 00:16:09;;;;;;;18.20;9.20;;;4.20;73.70;;;;;;5050683;28;20088;-76
2023/04/15 00:18:36;;;;;;;18.17;10.03;;;4.20;73.60;;;;;;5052051;28;20052;-77
2023/04/15 00:21:03;;;;;;;18.93;9.63;;;4.20;73.60;;;;;;5056891;28;20075;-76
2023/04/15 00:23:29;;;;;;;20.70;10.23;;;4.20;73.70;;;;;;5035808;28;20048;-77
2023/04/15 00:25:55;;;;;;;17.33;9.83;;;4.20;73.70;;;;;;5068718;28;20044;-76
2023/04/15 00:28:21;;;;;;;20.47;9.53;;;4.10;73.80;;;;;;5035295;28;20098;-76
2023/04/15 00:30:47;;;;;;;21.00;10.83;;;4.10;73.80;;;;;;5049648;28;20056;-76
2023/04/15 00:33:13;;;;;;;17.23;10.63;;;4.10;73.80;;;;;;5064948;28;20041;-76
2023/04/15 00:35:39;;;;;;;21.67;11.17;;;4.10;73.90;;;;;;5048654;28;20052;-76
2023/04/15 00:38:08;;;;;;;26.03;11.80;;;4.10;73.90;;;;;;5033179;28;20060;-76
2023/04/15 00:40:34;;;;;;;20.07;11.47;;;4.10;74.00;;;;;;5046876;28;20076;-73
2023/04/15 00:43:01;;;;;;;21.43;11.57;;;4.00;74.10;;;;;;5051847;28;20487;-76
2023/04/15 00:45:27;;;;;;;21.03;12.50;;;4.00;74.10;;;;;;5051841;28;20531;-76
2023/04/15 00:47:53;;;;;;;22.17;12.20;;;4.00;74.00;;;;;;5034895;28;20059;-76
2023/04/15 00:50:19;;;;;;;20.57;12.33;;;4.00;74.10;;;;;;5061087;28;20442;-77
2023/04/15 00:52:45;;;;;;;23.60;13.13;;;4.00;74.10;;;;;;5023950;28;20059;-75
2023/04/15 00:55:11;;;;;;;22.23;13.57;;;4.00;74.20;;;;;;5059231;28;20094;-76
2023/04/15 00:57:38;;;;;;;25.10;13.57;;;4.00;74.30;;;;;;5027038;28;20049;-76
2023/04/15 01:00:06;;;;;;;22.53;13.87;;;4.00;74.40;;;;;;5051220;28;20044;-76
2023/04/15 01:02:33;;;;;;;24.70;14.07;;;4.00;74.40;;;;;;5050084;28;20158;-76
2023/04/15 01:04:59;;;;;;;22.60;13.60;;;4.00;74.60;;;;;;5051924;28;20051;-76
2023/04/15 01:07:25;;;;;;;22.07;14.20;;;4.00;74.70;;;;;;5052676;28;20056;-76
2023/04/15 01:09:51;;;;;;;24.20;14.67;;;4.00;74.70;;;;;;5018778;28;20045;-76
2023/04/15 01:12:19;;;;;;;24.57;14.57;;;4.00;74.70;;;;;;5046746;28;20368;-77
2023/04/15 01:14:45;;;;;;;24.23;14.57;;;4.00;74.60;;;;;;5048342;28;20053;-77
2023/04/15 01:17:12;;;;;;;25.80;15.37;;;4.00;74.70;;;;;;5028350;28;20063;-76
2023/04/15 01:19:37;;;;;;;26.33;15.03;;;4.00;74.70;;;;;;5016492;28;20045;-76
2023/04/15 01:22:04;;;;;;;26.10;15.20;;;4.00;74.60;;;;;;5034059;28;20051;-76
2023/04/15 01:24:32;;;;;;;27.87;15.53;;;3.90;74.70;;;;;;5049365;28;20510;-76
2023/04/15 01:26:58;;;;;;;28.03;15.77;;;3.90;74.80;;;;;;5032163;28;20053;-76
2023/04/15 01:29:23;;;;;;;31.77;15.97;;;3.90;74.90;;;;;;5046891;28;20053;-75
2023/04/15 01:31:54;;;;;;;26.23;15.80;;;3.90;74.80;;;;;;5061748;28;20052;-77
2023/04/15 01:34:20;;;;;;;29.20;16.10;;;3.90;74.80;;;;;;5062146;28;20045;-77
2023/04/15 01:36:46;;;;;;;28.40;17.23;;;3.90;74.90;;;;;;5033463;28;20048;-77
2023/04/15 01:39:12;;;;;;;29.17;16.17;;;3.90;74.90;;;;;;5046796;28;20365;-76
2023/04/15 01:41:39;;;;;;;25.13;16.17;;;3.90;74.90;;;;;;5049101;28;20049;-77
2023/04/15 01:44:05;;;;;;;34.37;17.60;;;3.90;74.90;;;;;;5048182;28;20423;-76
2023/04/15 01:46:31;;;;;;;28.13;17.43;;;3.90;75.00;;;;;;5039635;28;20049;-76
2023/04/15 01:48:57;;;;;;;28.80;17.23;;;3.90;75.00;;;;;;5052454;28;20554;-75
2023/04/15 01:51:23;;;;;;;30.33;17.40;;;3.90;75.00;;;;;;5072145;28;20055;-77
2023/04/15 01:53:48;;;;;;;26.60;17.37;;;3.90;74.90;;;;;;5053850;28;20054;-76
2023/04/15 01:56:14;;;;;;;29.40;17.23;;;3.80;74.90;;;;;;5050899;28;20052;-72
2023/04/15 01:58:40;;;;;;;29.63;17.47;;;3.80;75.00;;;;;;5033150;28;20044;-77
2023/04/15 02:01:06;;;;;;;25.93;17.57;;;3.70;75.10;;;;;;5072572;28;20040;-76
2023/04/15 02:03:32;;;;;;;32.17;18.67;;;3.70;75.00;;;;;;5071281;28;20388;-76
2023/04/15 02:05:58;;;;;;;27.67;17.77;;;3.70;75.10;;;;;;5072317;28;20076;-76
2023/04/15 02:08:24;;;;;;;32.17;17.70;;;3.70;75.00;;;;;;5038895;28;20439;-77
2023/04/15 02:10:50;;;;;;;31.87;17.57;;;3.70;75.00;;;;;;5051833;28;20089;-77
2023/04/15 02:13:15;;;;;;;30.17;18.00;;;3.60;75.00;;;;;;5051823;28;20056;-76
2023/04/15 02:15:49;;;;;;;29.33;17.87;;;3.60;75.00;;;;;;5052319;28;20049;-77
2023/04/15 02:18:15;;;;;;;27.27;18.47;;;3.60;75.10;;;;;;5031074;28;20415;-77
2023/04/15 02:20:45;;;;;;;31.23;18.03;;;3.50;75.10;;;;;;5051941;28;20618;-76
2023/04/15 02:23:11;;;;;;;32.43;18.80;;;3.50;75.20;;;;;;5043820;28;20036;-74
2023/04/15 02:25:40;;;;;;;34.10;19.03;;;3.50;75.10;;;;;;5048203;28;20055;-76
2023/04/15 02:28:06;;;;;;;29.37;18.27;;;3.50;75.20;;;;;;5036385;28;20404;-74
2023/04/15 02:30:32;;;;;;;25.47;17.50;;;3.50;75.20;;;;;;5037086;28;20052;-76
2023/04/15 02:32:59;;;;;;;26.03;16.17;;;3.50;75.10;;;;;;5068982;28;20253;-76
2023/04/15 02:35:24;;;;;;;24.10;16.80;;;3.40;75.20;;;;;;5037668;28;20055;-77
2023/04/15 02:37:50;;;;;;;27.60;17.97;;;3.40;75.10;;;;;;5055952;28;20052;-77
2023/04/15 02:40:16;;;;;;;27.17;16.87;;;3.30;75.10;;;;;;5072341;28;20048;-76
2023/04/15 02:42:43;;;;;;;31.80;17.87;;;3.30;75.20;;;;;;5070536;28;20048;-76
2023/04/15 02:45:10;;;;;;;26.70;17.63;;;3.30;75.20;;;;;;5053802;28;20049;-76
2023/04/15 02:47:38;;;;;;;31.23;18.67;;;3.30;75.20;;;;;;5035603;28;20136;-76
2023/04/15 02:50:06;;;;;;;28.63;17.57;;;3.30;75.30;;;;;;5039291;28;20104;-76
2023/04/15 02:52:32;;;;;;;28.80;16.83;;;3.30;75.20;;;;;;5048366;28;20410;-76
2023/04/15 02:55:01;;;;;;;25.60;17.50;;;3.20;75.20;;;;;;5070806;28;20045;-76
2023/04/15 02:57:28;;;;;;;28.37;17.37;;;3.20;75.20;;;;;;5037612;28;20088;-76
2023/04/15 02:59:54;;;;;;;31.17;19.47;;;3.10;75.30;;;;;;5071361;28;20537;-77
2023/04/15 03:02:19;;;;;;;30.03;19.43;;;3.10;75.30;;;;;;5052704;28;20376;-76
2023/04/15 03:04:45;;;;;;;29.93;19.33;;;3.10;75.30;;;;;;5053146;28;20122;-76
2023/04/15 03:07:11;;;;;;;29.07;19.53;;;3.10;75.30;;;;;;5054914;28;20041;-76
2023/04/15 03:09:39;;;;;;;32.83;20.00;;;3.10;75.40;;;;;;5053119;28;20052;-76
2023/04/15 03:12:05;;;;;;;31.00;20.00;;;3.10;75.30;;;;;;5053046;28;20559;-77
2023/04/15 03:14:30;;;;;;;30.47;19.73;;;3.10;75.30;;;;;;5053401;28;20045;-76
2023/04/15 03:16:58;;;;;;;29.33;19.53;;;3.10;75.40;;;;;;5041536;28;20036;-77
2023/04/15 03:19:23;;;;;;;32.67;20.37;;;3.10;75.40;;;;;;5054878;28;20099;-76
2023/04/15 03:21:49;;;;;;;29.23;19.47;;;3.10;75.30;;;;;;5046931;28;20044;-76
2023/04/15 03:24:15;;;;;;;31.27;21.33;;;3.00;75.30;;;;;;5052413;28;20067;-76
2023/04/15 03:26:41;;;;;;;31.13;20.37;;;3.00;75.40;;;;;;5056445;28;20048;-76
2023/04/15 03:29:07;;;;;;;31.60;20.07;;;3.00;75.40;;;;;;5035511;28;20517;-76
2023/04/15 03:31:32;;;;;;;33.03;20.03;;;3.00;75.40;;;;;;5070909;28;20048;-76
2023/04/15 03:33:58;;;;;;;34.43;21.03;;;3.00;75.40;;;;;;5069087;28;20091;-76
2023/04/15 03:36:25;;;;;;;32.57;21.10;;;3.00;75.40;;;;;;5058701;28;20448;-76
2023/04/15 03:38:50;;;;;;;34.70;21.90;;;3.00;75.50;;;;;;5032578;28;20451;-76
2023/04/15 03:41:16;;;;;;;34.33;22.07;;;3.00;75.50;;;;;;5071072;28;20041;-76
2023/04/15 03:43:42;;;;;;;36.20;22.57;;;3.00;75.40;;;;;;5051831;28;20518;-76
2023/04/15 03:46:08;;;;;;;35.10;22.90;;;3.00;75.50;;;;;;5064035;28;20040;-76
2023/04/15 03:48:33;;;;;;;36.77;22.27;;;3.00;75.50;;;;;;5043221;28;20048;-77
2023/04/15 03:50:59;;;;;;;33.57;21.77;;;3.00;75.50;;;;;;5054435;28;20067;-76
2023/04/15 03:53:25;;;;;;;36.60;24.07;;;3.00;75.40;;;;;;5068377;28;20131;-77
2023/04/15 03:55:51;;;;;;;35.43;23.23;;;3.00;75.50;;;;;;5057219;28;20051;-76
2023/04/15 03:58:17;;;;;;;37.87;23.70;;;3.00;75.70;;;;;;5053890;28;20251;-75
2023/04/15 04:00:43;;;;;;;34.33;22.93;;;3.10;75.70;;;;;;5052435;28;20063;-77
2023/04/15 04:03:09;;;;;;;39.60;23.97;;;3.10;75.90;;;;;;5069326;28;20398;-76
2023/04/15 04:05:37;;;;;;;43.00;24.67;;;3.10;75.90;;;;;;5070401;28;20105;-76
2023/04/15 04:08:03;;;;;;;39.73;25.83;;;3.20;75.90;;;;;;5029987;28;20052;-76
2023/04/15 04:10:29;;;;;;;42.07;26.23;;;3.30;75.90;;;;;;5050058;28;20411;-77
2023/04/15 04:12:55;;;;;;;43.10;27.00;;;3.30;75.90;;;;;;5048809;28;20061;-77
2023/04/15 04:15:20;;;;;;;42.03;26.07;;;3.30;75.90;;;;;;5050076;28;20112;-76
2023/04/15 04:17:46;;;;;;;38.77;24.70;;;3.30;75.90;;;;;;5039179;28;20053;-76
2023/04/15 04:20:12;;;;;;;33.80;22.63;;;3.30;75.80;;;;;;5051470;28;20051;-76
2023/04/15 04:22:38;;;;;;;34.90;22.87;;;3.30;75.60;;;;;;5064096;28;20125;-76
2023/04/15 04:25:05;;;;;;;35.93;22.37;;;3.30;75.60;;;;;;5069549;28;20456;-76
2023/04/15 04:27:31;;;;;;;33.10;22.10;;;3.20;75.60;;;;;;5034668;28;20057;-76
2023/04/15 04:29:57;;;;;;;32.53;20.80;;;3.10;75.60;;;;;;5069564;28;20066;-76
2023/04/15 04:32:23;;;;;;;31.67;20.33;;;3.10;75.60;;;;;;5050169;28;20379;-76
2023/04/15 04:34:48;;;;;;;26.70;19.03;;;3.00;75.60;;;;;;5055216;28;20045;-76
2023/04/15 04:37:14;;;;;;;34.13;20.77;;;2.90;75.60;;;;;;5034910;28;20057;-77
2023/04/15 04:39:40;;;;;;;30.30;19.53;;;2.80;75.60;;;;;;5048425;28;20132;-76
2023/04/15 04:42:05;;;;;;;30.27;20.20;;;2.80;75.60;;;;;;5048336;28;20068;-76
2023/04/15 04:44:31;;;;;;;31.30;19.30;;;2.70;75.70;;;;;;5049732;28;20076;-76
2023/04/15 04:46:57;;;;;;;32.90;19.73;;;2.70;75.70;;;;;;5034500;28;20083;-75
2023/04/15 04:49:22;;;;;;;34.07;20.63;;;2.60;75.60;;;;;;5067014;28;20052;-76
2023/04/15 04:51:48;;;;;;;36.00;22.10;;;2.50;75.70;;;;;;5068636;28;20097;-76
2023/04/15 04:54:15;;;;;;;30.97;20.73;;;2.50;75.70;;;;;;5050690;28;20496;-77
2023/04/15 04:56:40;;;;;;;34.57;21.40;;;2.50;75.80;;;;;;5055310;28;20056;-77
2023/04/15 04:59:06;;;;;;;34.17;21.40;;;2.50;75.70;;;;;;5067247;28;20052;-76
2023/04/15 05:01:32;;;;;;;31.83;21.23;;;2.50;75.70;;;;;;5035003;28;20045;-76
2023/04/15 05:03:59;;;;;;;36.13;21.73;;;2.40;75.70;;;;;;5049498;28;20392;-77
2023/04/15 05:06:25;;;;;;;34.27;22.27;;;2.40;75.80;;;;;;5054258;28;20378;-76
2023/04/15 05:08:50;;;;;;;38.53;23.30;;;2.40;76.00;;;;;;5040635;28;20101;-76
2023/04/15 05:11:16;;;;;;;38.67;23.83;;;2.50;76.00;;;;;;5047785;28;20044;-76
2023/04/15 05:13:42;;;;;;;40.10;25.33;;;2.50;76.10;;;;;;5048435;28;20056;-77
2023/04/15 05:16:08;;;;;;;40.20;25.50;;;2.50;76.20;;;;;;5042881;28;20098;-76
2023/04/15 05:18:34;;;;;;;42.73;26.80;;;2.60;76.50;;;;;;5039954;28;20060;-76
2023/04/15 05:21:01;;;;;;;44.53;27.97;;;2.70;76.70;;;;;;5047969;28;20369;-77
2023/04/15 05:23:27;;;;;;;50.20;29.13;;;2.80;76.90;;;;;;5053853;28;20051;-76
2023/04/15 05:25:52;;;;;;;48.13;27.80;;;2.90;77.00;;;;;;5068357;28;20044;-76
2023/04/15 05:28:18;;;;;;;48.23;26.90;;;3.10;77.20;;;;;;5034953;28;20048;-76
2023/04/15 05:30:44;;;;;;;38.73;25.13;;;3.20;77.40;;;;;;5067611;28;20125;-76
2023/04/15 05:33:10;;;;;;;39.10;23.57;;;3.30;77.20;;;;;;5043156;28;20043;-77
2023/04/15 05:35:35;;;;;;;43.53;26.13;;;3.50;77.30;;;;;;5034482;28;20049;-77
2023/04/15 05:38:01;;;;;;;40.13;24.77;;;3.50;77.30;;;;;;5036772;28;20049;-77
2023/04/15 05:40:27;;;;;;;40.87;25.13;;;3.70;77.40;;;;;;5046952;28;20080;-77
2023/04/15 05:42:52;;;;;;;36.57;23.13;;;3.90;77.40;;;;;;5064781;28;20048;-76
2023/04/15 05:45:18;;;;;;;35.80;23.33;;;4.00;77.40;;;;;;5049102;28;20040;-75
2023/04/15 05:47:44;;;;;;;35.17;22.43;;;4.20;77.70;;;;;;5042432;28;20055;-76
2023/04/15 05:50:10;;;;;;;35.03;22.90;;;4.40;77.90;;;;;;5054759;28;20549;-77
2023/04/15 05:52:35;;;;;;;34.13;22.63;;;4.70;78.10;;;;;;5068109;28;20539;-76
2023/04/15 05:55:01;;;;;;;33.00;21.20;;;4.90;77.80;;;;;;5066903;28;20080;-78
2023/04/15 05:57:27;;;;;;;29.83;20.33;;;5.00;77.60;;;;;;5050010;28;20521;-78
2023/04/15 05:59:54;;;;;;;27.40;19.50;;;5.10;77.30;;;;;;5068636;28;20049;-79
2023/04/15 06:02:20;;;;;;;28.27;19.53;;;5.20;77.20;;;;;;5067576;28;20483;-79
2023/04/15 06:04:45;;;;;;;28.67;19.23;;;5.20;77.20;;;;;;5069124;28;20052;-78
2023/04/15 06:07:11;;;;;;;25.23;18.47;;;5.30;77.10;;;;;;5001731;28;20484;-79
2023/04/15 06:09:36;;;;;;;26.93;18.43;;;5.30;77.10;;;;;;5034214;28;20125;-78
2023/04/15 06:12:02;;;;;;;29.13;19.97;;;5.30;77.10;;;;;;5067760;28;20044;-78
2023/04/15 06:14:28;;;;;;;27.63;18.70;;;5.50;77.00;;;;;;5068878;28;20049;-78
2023/04/15 06:16:54;;;;;;;30.17;18.77;;;5.50;77.00;;;;;;5056653;28;20071;-79
2023/04/15 06:19:19;;;;;;;27.23;19.00;;;5.50;77.00;;;;;;5049487;28;20048;-78
2023/04/15 06:21:45;;;;;;;26.00;18.43;;;5.60;77.10;;;;;;5030577;28;20355;-79
2023/04/15 06:24:11;;;;;;;28.00;18.77;;;5.70;77.20;;;;;;5051662;28;20044;-76
2023/04/15 06:26:37;;;;;;;26.80;19.10;;;5.80;77.30;;;;;;5052860;28;20464;-77
2023/04/15 06:29:03;;;;;;;28.73;19.17;;;5.90;77.30;;;;;;5066220;28;20064;-75
2023/04/15 06:31:29;;;;;;;25.93;17.93;;;6.10;77.30;;;;;;5052678;28;20094;-76
2023/04/15 06:33:55;;;;;;;25.13;17.87;;;6.20;77.30;;;;;;5052243;28;20048;-76
2023/04/15 06:36:20;;;;;;;25.73;18.03;;;6.30;77.30;;;;;;5059721;28;20502;-72
2023/04/15 06:38:46;;;;;;;26.20;18.13;;;6.50;77.50;;;;;;5067998;28;20048;-76
2023/04/15 06:41:12;;;;;;;26.83;18.87;;;6.60;77.50;;;;;;5071363;28;20525;-77
2023/04/15 06:43:38;;;;;;;28.63;18.20;;;6.80;77.50;;;;;;5053199;28;20052;-75
2023/04/15 06:46:05;;;;;;;29.97;19.60;;;7.00;77.40;;;;;;5071104;28;20087;-72
2023/04/15 06:48:31;;;;;;;25.03;17.40;;;7.10;77.40;;;;;;5033594;28;20055;-75
2023/04/15 06:50:57;;;;;;;24.90;16.37;;;7.20;77.30;;;;;;5071599;28;20053;-75
2023/04/15 06:53:26;;;;;;;23.33;16.17;;;7.40;77.30;;;;;;5050973;28;20068;-74
2023/04/15 06:55:52;;;;;;;23.93;15.63;;;7.50;77.40;;;;;;5051769;28;20049;-75
2023/04/15 06:58:18;;;;;;;23.47;15.53;;;7.70;77.30;;;;;;5050461;28;20142;-75
2023/04/15 07:00:44;;;;;;;22.67;14.33;;;7.80;76.90;;;;;;5064053;28;20487;-75
2023/04/15 07:03:11;;;;;;;19.73;13.80;;;8.00;76.80;;;;;;5046568;28;20098;-75
2023/04/15 07:05:37;;;;;;;16.60;12.00;;;8.00;76.60;;;;;;5052496;28;20403;-74
2023/04/15 07:08:04;;;;;;;19.60;11.83;;;8.10;76.30;;;;;;5036069;28;20041;-75
2023/04/15 07:10:29;;;;;;;17.67;11.20;;;8.10;75.90;;;;;;5064753;28;20040;-76
2023/04/15 07:12:56;;;;;;;16.03;11.77;;;8.10;75.90;;;;;;5068695;28;20049;-74
2023/04/15 07:15:22;;;;;;;18.43;11.20;;;8.10;75.80;;;;;;5069322;28;20133;-75
2023/04/15 07:17:48;;;;;;;14.73;9.90;;;8.00;75.80;;;;;;5047168;28;20051;-76
2023/04/15 07:20:13;;;;;;;14.30;9.77;;;8.10;75.80;;;;;;5043778;28;20515;-76
2023/04/15 07:22:39;;;;;;;17.37;10.30;;;8.10;75.70;;;;;;5064147;28;20091;-74
2023/04/15 07:25:06;;;;;;;14.67;10.40;;;8.10;75.60;;;;;;5042578;28;20547;-75
2023/04/15 07:27:32;;;;;;;14.13;9.47;;;8.10;75.60;;;;;;5037319;28;20146;-75
2023/04/15 07:29:58;;;;;;;15.23;10.30;;;8.20;75.60;;;;;;5053912;28;20410;-75
2023/04/15 07:32:23;;;;;;;14.40;9.17;;;8.20;75.70;;;;;;5067905;28;20052;-73
2023/04/15 07:34:49;;;;;;;16.07;9.63;;;8.30;75.50;;;;;;5065091;28;20406;-75
2023/04/15 07:37:15;;;;;;;15.57;9.73;;;8.30;75.40;;;;;;5053798;28;20122;-74
2023/04/15 07:39:41;;;;;;;15.63;9.70;;;8.30;75.20;;;;;;5069099;28;20044;-75
2023/04/15 07:42:07;;;;;;;16.00;10.30;;;8.30;75.20;;;;;;5068005;28;20045;-75
2023/04/15 07:44:33;;;;;;;16.73;10.27;;;8.30;75.00;;;;;;5070219;28;20602;-76
2023/04/15 07:46:59;;;;;;;27.87;12.73;;;8.30;75.00;;;;;;5055056;28;20111;-75
2023/04/15 07:49:25;;;;;;;16.30;9.37;;;8.30;75.20;;;;;;5067439;28;20088;-75
2023/04/15 07:51:50;;;;;;;19.33;11.93;;;8.40;75.20;;;;;;5050520;28;20083;-75
2023/04/15 07:54:16;;;;;;;16.33;10.53;;;8.40;75.20;;;;;;5057215;28;20498;-75
2023/04/15 07:56:42;;;;;;;18.03;10.57;;;8.50;75.00;;;;;;5042275;28;20071;-74
2023/04/15 07:59:08;;;;;;;15.03;9.07;;;8.50;75.10;;;;;;5051434;28;20044;-76
2023/04/15 08:01:34;;;;;;;14.53;9.43;;;8.50;74.70;;;;;;5052567;28;20085;-75
2023/04/15 08:04:00;;;;;;;14.83;8.77;;;8.40;74.40;;;;;;5045251;28;20055;-75
2023/04/15 08:06:26;;;;;;;12.77;7.87;;;8.30;74.50;;;;;;5051689;28;21262;-75
2023/04/15 08:08:53;;;;;;;11.77;7.77;;;8.30;74.30;;;;;;5053854;28;20086;-74
2023/04/15 08:11:19;;;;;;;15.27;8.10;;;8.30;74.20;;;;;;5057320;28;20090;-76
2023/04/15 08:13:45;;;;;;;16.70;8.53;;;8.20;74.30;;;;;;5050079;28;20057;-76
2023/04/15 08:16:18;;;;;;;14.47;8.30;;;8.20;74.50;;;;;;5032604;28;20045;-72
2023/04/15 08:18:44;;;;;;;14.23;7.80;;;8.10;74.50;;;;;;5050175;28;20080;-75
2023/04/15 08:21:10;;;;;;;12.73;8.30;;;8.10;74.50;;;;;;5056219;28;20080;-74
2023/04/15 08:23:37;;;;;;;14.40;8.17;;;8.10;74.60;;;;;;5048496;28;20388;-74
2023/04/15 08:26:03;;;;;;;10.73;6.27;;;8.00;74.60;;;;;;5058539;28;20079;-76
2023/04/15 08:28:28;;;;;;;10.23;5.80;;;8.00;74.60;;;;;;5053059;28;20573;-76
2023/04/15 08:30:54;;;;;;;16.27;6.53;;;8.00;74.60;;;;;;5051540;28;20511;-74
2023/04/15 08:33:20;;;;;;;9.80;5.23;;;8.00;74.60;;;;;;5029278;28;20515;-76
2023/04/15 08:35:47;;;;;;;9.83;5.30;;;8.00;74.60;;;;;;5051874;28;20090;-76
2023/04/15 08:38:12;;;;;;;11.40;4.77;;;8.00;74.30;;;;;;5043547;28;20166;-75
2023/04/15 08:40:44;;;;;;;7.93;4.10;;;7.90;74.20;;;;;;5068591;28;20079;-76
2023/04/15 08:43:18;;;;;;;;;;;8.00;74.10;;;;;;5067999;28;20063;-74
2023/04/15 08:45:45;;;;;;;8.90;3.97;;;8.00;74.10;;;;;;5068734;28;20344;-75
2023/04/15 08:48:17;;;;;;;7.10;3.80;;;8.20;74.10;;;;;;5034177;28;20101;-76
2023/04/15 08:50:43;;;;;;;7.43;4.03;;;8.40;73.60;;;;;;5050423;28;20449;-75
2023/04/15 08:53:10;;;;;;;6.90;4.27;;;8.40;72.80;;;;;;5049301;28;20044;-76
2023/04/15 08:55:44;;;;;;;7.17;4.63;;;8.30;72.90;;;;;;5050503;28;20415;-75
2023/04/15 08:58:11;;;;;;;11.63;5.20;;;8.30;73.10;;;;;;5034549;28;20036;-74
2023/04/15 09:00:37;;;;;;;6.80;4.33;;;8.30;73.40;;;;;;5069516;28;20044;-75
2023/04/15 09:03:07;;;;;;;11.57;5.13;;;8.20;73.30;;;;;;5067968;28;20483;-75
2023/04/15 09:05:34;;;;;;;12.40;5.47;;;8.20;73.20;;;;;;5048946;28;20135;-76
2023/04/15 09:08:01;;;;;;;9.23;4.97;;;8.10;73.50;;;;;;5033909;28;20507;-76
2023/04/15 09:10:27;;;;;;;9.67;4.27;;;8.10;73.60;;;;;;5048355;28;20045;-78
2023/04/15 09:12:54;;;;;;;6.47;4.00;;;8.00;73.60;;;;;;5067170;28;20044;-75
2023/04/15 09:15:19;;;;;;;7.40;4.37;;;8.00;73.70;;;;;;5068486;28;20044;-77
2023/04/15 09:17:46;;;;;;;7.53;3.33;;;8.00;73.80;;;;;;5058235;28;20070;-76
2023/04/15 09:20:19;;;;;;;6.80;3.30;;;8.00;73.80;;;;;;5053885;28;20044;-77
2023/04/15 09:22:48;;;;;;;10.63;3.23;;;8.00;73.70;;;;;;5049112;28;20052;-76
2023/04/15 09:25:14;;;;;;;6.07;2.53;;;8.10;73.90;;;;;;5069630;28;20506;-75
2023/04/15 09:27:48;;;;;;;10.83;2.77;;;8.20;73.50;;;;;;5052832;28;20056;-76
2023/04/15 09:30:15;;;;;;;6.07;2.53;;;8.40;73.20;;;;;;5050839;28;20491;-76
2023/04/15 09:32:51;;;;;;;5.07;2.23;;;8.80;73.10;;;;;;5044929;28;20257;-76
2023/04/15 09:35:17;;;;;;;7.37;2.00;;;9.10;72.60;;;;;;5069335;28;20392;-76
2023/04/15 09:37:43;;;;;;;3.23;1.80;;;9.20;72.20;;;;;;5018916;28;20052;-76
2023/04/15 09:40:09;;;;;;;3.90;1.60;;;9.40;72.00;;;;;;5068611;28;20067;-77
2023/04/15 09:42:36;;;;;;;2.37;1.70;;;9.40;72.00;;;;;;5066292;28;20628;-77
2023/04/15 09:45:11;;;;;;;2.87;1.30;;;9.30;71.50;;;;;;5051125;28;20083;-76
2023/04/15 09:47:37;;;;;;;5.83;1.63;;;9.40;71.50;;;;;;5051901;28;20093;-75
2023/04/15 09:50:03;;;;;;;5.20;1.30;;;9.30;71.40;;;;;;5051720;28;20151;-76
2023/04/15 09:52:29;;;;;;;3.73;1.33;;;9.30;71.50;;;;;;5050298;28;20087;-76
2023/04/15 09:54:57;;;;;;;4.17;1.10;;;9.20;71.30;;;;;;5049956;28;20044;-76
2023/04/15 09:57:24;;;;;;;4.57;1.37;;;9.20;71.00;;;;;;5018285;28;20132;-77
2023/04/15 09:59:50;;;;;;;2.80;1.13;;;9.20;71.10;;;;;;5067447;28;20044;-76
2023/04/15 10:02:19;;;;;;;2.50;1.37;;;9.20;71.10;;;;;;5061205;28;20053;-78
2023/04/15 10:04:47;;;;;;;3.40;1.43;;;9.20;71.00;;;;;;5051105;28;20056;-76
2023/04/15 10:07:14;;;;;;;5.40;1.67;;;9.20;71.10;;;;;;5051017;28;20057;-77
2023/04/15 10:09:41;;;;;;;5.97;1.90;;;9.20;71.20;;;;;;5052186;28;20098;-77
2023/04/15 10:12:08;;;;;;;4.20;1.77;;;9.20;71.20;;;;;;5051033;28;20040;-75
2023/04/15 10:14:37;;;;;;;3.57;1.50;;;9.20;71.20;;;;;;5050488;28;20503;-76
2023/04/15 10:17:04;;;;;;;4.40;1.60;;;9.20;71.20;;;;;;5043140;28;20113;-72
2023/04/15 10:19:36;;;;;;;3.47;1.70;;;9.20;71.10;;;;;;5076656;28;20048;-77
2023/04/15 10:22:03;;;;;;;5.10;1.70;;;9.20;71.00;;;;;;5047957;28;20036;-77
2023/04/15 10:24:32;;;;;;;2.40;1.47;;;9.30;71.00;;;;;;5065308;28;20123;-76
2023/04/15 10:26:59;;;;;;;5.30;1.87;;;9.30;71.00;;;;;;5056233;28;20394;-79
2023/04/15 10:29:27;;;;;;;3.20;1.53;;;9.30;71.20;;;;;;5049603;28;20052;-74
2023/04/15 10:31:57;;;;;;;2.83;1.60;;;9.30;71.00;;;;;;5056552;28;20505;-76
2023/04/15 10:34:24;;;;;;;4.57;1.57;;;9.30;71.00;;;;;;5058411;28;20548;-76
2023/04/15 10:36:50;;;;;;;4.07;1.43;;;9.20;70.90;;;;;;5042183;28;20060;-75
2023/04/15 10:39:36;;;;;;;4.13;1.80;;;9.20;71.00;;;;;;5033285;28;20044;-76
2023/04/15 10:42:09;;;;;;;5.70;1.73;;;9.20;70.70;;;;;;5056053;28;20546;-76
2023/04/15 10:44:56;;;;;;;6.10;2.00;;;9.20;71.00;;;;;;5057482;28;20048;-76
2023/04/15 10:47:21;;;;;;;8.57;2.03;;;9.20;71.00;;;;;;5050776;28;20495;-78
2023/04/15 10:49:57;;;;;;;5.23;1.77;;;9.20;70.90;;;;;;5061542;28;20052;-77
2023/04/15 10:52:26;;;;;;;6.13;2.23;;;9.20;70.80;;;;;;5045865;28;20481;-76
2023/04/15 10:55:12;;;;;;;8.20;2.20;;;9.00;70.80;;;;;;5063480;28;20041;-77
2023/04/15 10:57:39;;;;;;;4.50;1.77;;;9.00;70.90;;;;;;5031692;28;20200;-76
2023/04/15 11:00:12;;;;;;;3.73;2.00;;;9.00;70.70;;;;;;5049108;28;20040;-77
2023/04/15 11:02:42;;;;;;;5.20;2.40;;;9.00;70.80;;;;;;5045604;28;20499;-76
2023/04/15 11:05:09;;;;;;;10.50;2.90;;;9.00;70.90;;;;;;5043610;28;20041;-77
2023/04/15 11:07:50;;;;;;;8.37;2.70;;;9.00;71.20;;;;;;5013795;28;20072;-75
2023/04/15 11:10:25;;;;;;;4.72;1.92;;;9.00;71.20;;;;;;5064343;28;20399;-77
2023/04/15 11:12:53;;;;;;;8.77;2.70;;;9.20;71.40;;;;;;5057394;28;20044;-76
2023/04/15 11:15:33;;;;;;;7.90;3.07;;;9.20;71.40;;;;;;5044767;28;20040;-76
2023/04/15 11:18:12;;;;;;;11.20;3.03;;;9.20;71.60;;;;;;5050512;28;20045;-76
2023/04/15 11:20:46;;;;;;;8.30;2.27;;;9.20;71.70;;;;;;5039452;28;20036;-76
2023/04/15 11:23:13;;;;;;;6.33;1.43;;;9.20;71.40;;;;;;5060252;28;20037;-76
2023/04/15 11:25:39;;;;;;;9.47;2.07;;;9.20;71.00;;;;;;5041202;28;20080;-77
2023/04/15 11:28:06;;;;;;;7.37;1.70;;;9.20;70.90;;;;;;5025954;28;20049;-78
2023/04/15 11:30:35;;;;;;;9.73;1.57;;;9.20;70.80;;;;;;5062097;28;20083;-76
2023/04/15 11:33:03;;;;;;;9.03;2.27;;;9.20;71.00;;;;;;5046723;28;20059;-76
2023/04/15 11:35:29;;;;;;;9.30;2.10;;;9.20;71.00;;;;;;5048080;28;20076;-76
2023/04/15 11:37:56;;;;;;;6.93;2.10;;;9.20;71.00;;;;;;5045185;28;20095;-76
2023/04/15 11:40:24;;;;;;;9.30;1.67;;;9.20;71.20;;;;;;5075234;28;20044;-78
2023/04/15 11:43:12;;;;;;;4.90;1.97;;;9.30;71.00;;;;;;5037580;28;20082;-77
2023/04/15 11:45:57;;;;;;;8.10;1.90;;;9.30;70.90;;;;;;5070199;28;20039;-75
2023/04/15 11:48:25;;;;;;;5.70;2.00;;;9.30;70.90;;;;;;5054394;28;20489;-76
2023/04/15 11:51:04;;;;;;;7.87;1.87;;;9.30;70.90;;;;;;5060884;28;20045;-77
2023/04/15 11:53:44;;;;;;;9.13;2.20;;;9.30;71.00;;;;;;5027723;28;20045;-76
2023/04/15 11:56:21;;;;;;;7.50;1.93;;;9.20;71.10;;;;;;5063728;28;21470;-76
2023/04/15 11:58:49;;;;;;;17.20;2.10;;;9.20;71.20;;;;;;5047845;28;20049;-76
2023/04/15 12:01:15;;;;;;;9.30;2.43;;;9.30;71.20;;;;;;5066888;28;20052;-75
2023/04/15 12:03:49;;;;;;;8.70;2.30;;;9.20;71.20;;;;;;5049133;28;20052;-76
2023/04/15 12:06:20;;;;;;;8.87;1.83;;;9.20;71.20;;;;;;5058880;28;20179;-74
2023/04/15 12:09:03;;;;;;;8.48;1.70;;;9.00;71.20;;;;;;5038756;28;20097;-75
2023/04/15 12:11:37;;;;;;;9.90;2.17;;;9.00;71.30;;;;;;5048163;28;20053;-76
2023/04/15 12:14:06;;;;;;;7.77;2.20;;;9.00;71.50;;;;;;5043139;28;20400;-74
2023/04/15 12:16:34;;;;;;;9.60;2.20;;;9.20;71.50;;;;;;5020651;28;20061;-75
2023/04/15 12:19:03;;;;;;;11.17;2.50;;;9.20;71.40;;;;;;5032356;28;20040;-76
2023/04/15 12:21:34;;;;;;;10.63;2.80;;;9.20;71.50;;;;;;5061926;28;20041;-74
2023/04/15 12:24:03;;;;;;;8.90;1.88;;;9.10;71.50;;;;;;5058928;28;20194;-77
2023/04/15 12:26:33;;;;;;;9.93;1.83;;;9.00;71.50;;;;;;5037982;28;20045;-73
2023/04/15 12:29:07;;;;;;;8.23;1.63;;;9.00;71.40;;;;;;5039816;28;20433;-77
2023/04/15 12:31:35;;;;;;;8.30;1.70;;;8.90;71.20;;;;;;5067607;28;20051;-76
2023/04/15 12:34:02;;;;;;;8.13;1.57;;;8.90;71.50;;;;;;5064057;28;20072;-74
2023/04/15 12:36:30;;;;;;;13.00;2.37;;;8.90;71.60;;;;;;5038682;28;20457;-76
2023/04/15 12:38:56;;;;;;;8.60;1.90;;;9.00;71.60;;;;;;5050545;28;20052;-77
2023/04/15 12:41:23;;;;;;;6.47;1.93;;;9.00;71.70;;;;;;5069427;28;20037;-75
2023/04/15 12:43:49;;;;;;;10.73;2.23;;;9.00;71.70;;;;;;5063717;28;20530;-76